Patuxent River Naval Air Station/Trapnell Field Aiport
KNHK : now visible

Airfield :











YOU CAN JOIN US ON...

 
LOGIN :

Register | Disclaimer

   EN    FR    IT 

 









Legend :    VFR   Marginal VFR   IFR   Intensive IFR   Very Intensive IFR
Visi :
Ceiling :
>= 8 km
>= 3000ft
5 to 8 km
1000 to 3000 ft
1500m to 5 km
500 to 1000 ft
800 to 1500m
200 to 500 ft
< 800m
< 200 ft
Symbols :   Thunderstorms  Fog  Heavy snow  Heavy precipitations  Wind > 20 kt






- Airport Elevation : 39 ft


KNHK - Patuxent River Naval Air Station/Trapnell Field Aiport

CURRENT METAR :
  • 270511Z AUTO 17007KT 3SM BR OVC002 11/11 A2947 RMK AO2 VIS 3/4 RY24 T01110106 $

EXPIRED METARs :
  • 270452Z AUTO 17008KT 3/4SM BR VV002 10/10 A2948 RMK AO2 DZE0354 SLP983 P0001 T01000100 401060078 $
  • 270404Z AUTO 15008KT 1/2SM FG VV002 08/08 A2952 RMK AO2 DZE0354 P0001 T00830083 $
  • 270352Z 14010KT 1/4SM -DZ FG VV002 08/08 A2952 RMK AO2 DZB49 PRESFR SLP997 P0000 T00830083 $
  • 270252Z 14008KT 1/2SM FG VV002 08/08 A2958 RMK AO2 SLP018 60000 T00780078 56045 $

TAF TAF KNHK
Valid from the 26 at 23:00 until the 27 at 23:00 UTC


2623/2723 12011KT 6000 BR VCSH OVC006 540009 540909 QNH2955INS
TEMPO 2623/2703 VRB06KT 0800 -DZ FG OVC002
BECMG 2701/2703 16008KT 0800 SHRA FG OVC003 640809 641701 540009 540909 QNH2946INS
TEMPO 2703/2709 23014G20KT 4800 -SHRA BR SCT005 BKN010 OVC025
BECMG 2707/2709 28018G25KT 8000 BR BKN013 BKN020 OVC035 600000 540009 540909 QNH2955INS
TEMPO 2709/2715 29014G20KT SCT035 SCT050
BECMG 2713/2715 29020G35KT 9999 NSW FEW035 540009 540909 QNH2975INS
BECMG 2721/2723 28012KT 9999 FEW050 500000 QNH2988INS AUTOMATED SENSOR METWATCH 2704 TIL 2709 T03/2712Z T10/2718Z FN00067



MET'MAP, your aeronautical weather chart ! - Copyright ORBIFLY December 2007 - Disclaimer

ORBIFLY MET'MAP TEAM :

Programming & Development : Alexandra Zaïnal
Concept & original design : Baudouin d'Aumeries
Assistance for programming : Marc-Olivier Méhu
Technical & hardware support : Manuel Goepfert

Contact : metmap@orbifly.com




SOURCES & CREDITS :

   NOAA       Earth
Advisory